sensor_id;sensor_type;location;lat;lon;timestamp;temperature;humidity
7413;DHT22;3748;48.136;11.538;2022-11-25T00:01:08;1.90;99.90
7413;DHT22;3748;48.136;11.538;2022-11-25T00:03:36;1.80;99.90
7413;DHT22;3748;48.136;11.538;2022-11-25T00:06:11;1.80;99.90
7413;DHT22;3748;48.136;11.538;2022-11-25T00:08:40;1.80;99.90
7413;DHT22;3748;48.136;11.538;2022-11-25T00:11:08;1.80;99.90
7413;DHT22;3748;48.136;11.538;2022-11-25T00:13:36;1.70;99.90
7413;DHT22;3748;48.136;11.538;2022-11-25T00:16:04;1.80;99.90
7413;DHT22;3748;48.136;11.538;2022-11-25T00:18:31;1.70;99.90
7413;DHT22;3748;48.136;11.538;2022-11-25T00:21:04;1.70;99.90
7413;DHT22;3748;48.136;11.538;2022-11-25T00:23:31;1.80;99.90
7413;DHT22;3748;48.136;11.538;2022-11-25T00:26:06;1.70;99.90
7413;DHT22;3748;48.136;11.538;2022-11-25T00:28:34;1.70;99.90
7413;DHT22;3748;48.136;11.538;2022-11-25T00:31:05;1.60;99.90
7413;DHT22;3748;48.136;11.538;2022-11-25T00:33:32;1.80;99.90
7413;DHT22;3748;48.136;11.538;2022-11-25T00:36:00;1.80;99.90
7413;DHT22;3748;48.136;11.538;2022-11-25T00:38:27;1.70;99.90
7413;DHT22;3748;48.136;11.538;2022-11-25T00:40:54;1.50;99.90
7413;DHT22;3748;48.136;11.538;2022-11-25T00:43:43;1.50;99.90
7413;DHT22;3748;48.136;11.538;2022-11-25T00:46:28;1.50;99.90
7413;DHT22;3748;48.136;11.538;2022-11-25T00:48:54;1.40;99.90
7413;DHT22;3748;48.136;11.538;2022-11-25T00:51:21;1.40;99.90
7413;DHT22;3748;48.136;11.538;2022-11-25T00:53:48;1.40;99.90
7413;DHT22;3748;48.136;11.538;2022-11-25T00:56:20;1.30;99.90
7413;DHT22;3748;48.136;11.538;2022-11-25T00:58:49;1.30;99.90
7413;DHT22;3748;48.136;11.538;2022-11-25T01:01:18;1.30;99.90
7413;DHT22;3748;48.136;11.538;2022-11-25T01:03:47;1.40;99.90
7413;DHT22;3748;48.136;11.538;2022-11-25T01:06:33;1.40;99.90
7413;DHT22;3748;48.136;11.538;2022-11-25T01:09:01;1.40;99.90
7413;DHT22;3748;48.136;11.538;2022-11-25T01:11:28;1.40;99.90
7413;DHT22;3748;48.136;11.538;2022-11-25T01:13:56;1.40;99.90
7413;DHT22;3748;48.136;11.538;2022-11-25T01:16:37;1.40;99.90
7413;DHT22;3748;48.136;11.538;2022-11-25T01:19:04;1.40;99.90
7413;DHT22;3748;48.136;11.538;2022-11-25T01:21:33;1.60;99.90
7413;DHT22;3748;48.136;11.538;2022-11-25T01:24:01;1.50;99.90
7413;DHT22;3748;48.136;11.538;2022-11-25T01:26:38;1.50;99.90
7413;DHT22;3748;48.136;11.538;2022-11-25T01:29:11;1.30;99.90
7413;DHT22;3748;48.136;11.538;2022-11-25T01:31:38;1.40;99.90
7413;DHT22;3748;48.136;11.538;2022-11-25T01:34:06;1.30;99.90
7413;DHT22;3748;48.136;11.538;2022-11-25T01:36:39;1.30;99.90
7413;DHT22;3748;48.136;11.538;2022-11-25T01:39:06;1.30;99.90
7413;DHT22;3748;48.136;11.538;2022-11-25T01:42:03;1.30;99.90
7413;DHT22;3748;48.136;11.538;2022-11-25T01:44:32;1.10;99.90
7413;DHT22;3748;48.136;11.538;2022-11-25T01:47:04;1.40;99.90
7413;DHT22;3748;48.136;11.538;2022-11-25T01:49:39;1.40;99.90
7413;DHT22;3748;48.136;11.538;2022-11-25T01:52:11;1.40;99.90
7413;DHT22;3748;48.136;11.538;2022-11-25T01:54:42;1.40;99.90
7413;DHT22;3748;48.136;11.538;2022-11-25T01:57:12;1.30;99.90
7413;DHT22;3748;48.136;11.538;2022-11-25T01:59:45;1.40;99.90
7413;DHT22;3748;48.136;11.538;2022-11-25T02:02:14;1.40;99.90
7413;DHT22;3748;48.136;11.538;2022-11-25T02:04:42;1.40;99.90
7413;DHT22;3748;48.136;11.538;2022-11-25T02:07:12;1.30;99.90
7413;DHT22;3748;48.136;11.538;2022-11-25T02:09:50;1.40;99.90
7413;DHT22;3748;48.136;11.538;2022-11-25T02:12:32;1.40;99.90
7413;DHT22;3748;48.136;11.538;2022-11-25T02:15:21;1.50;99.90
7413;DHT22;3748;48.136;11.538;2022-11-25T02:17:48;1.60;99.90
7413;DHT22;3748;48.136;11.538;2022-11-25T02:20:17;1.60;99.90
7413;DHT22;3748;48.136;11.538;2022-11-25T02:22:51;1.60;99.90
7413;DHT22;3748;48.136;11.538;2022-11-25T02:25:30;1.50;99.90
7413;DHT22;3748;48.136;11.538;2022-11-25T02:28:00;1.50;99.90
7413;DHT22;3748;48.136;11.538;2022-11-25T02:30:27;1.30;99.90
7413;DHT22;3748;48.136;11.538;2022-11-25T02:32:56;1.50;99.90
7413;DHT22;3748;48.136;11.538;2022-11-25T02:35:29;1.50;99.90
7413;DHT22;3748;48.136;11.538;2022-11-25T02:38:02;1.50;99.90
7413;DHT22;3748;48.136;11.538;2022-11-25T02:40:31;1.40;99.90
7413;DHT22;3748;48.136;11.538;2022-11-25T02:42:59;1.40;99.90
7413;DHT22;3748;48.136;11.538;2022-11-25T02:45:32;1.30;99.90
7413;DHT22;3748;48.136;11.538;2022-11-25T02:48:03;1.30;99.90
7413;DHT22;3748;48.136;11.538;2022-11-25T02:50:29;1.40;99.90
7413;DHT22;3748;48.136;11.538;2022-11-25T02:52:56;1.30;99.90
7413;DHT22;3748;48.136;11.538;2022-11-25T02:55:23;1.30;99.90
7413;DHT22;3748;48.136;11.538;2022-11-25T02:57:51;1.40;99.90
7413;DHT22;3748;48.136;11.538;2022-11-25T03:00:19;1.40;99.90
7413;DHT22;3748;48.136;11.538;2022-11-25T03:02:46;1.30;99.90
7413;DHT22;3748;48.136;11.538;2022-11-25T03:05:13;1.30;99.90
7413;DHT22;3748;48.136;11.538;2022-11-25T03:07:39;1.40;99.90
7413;DHT22;3748;48.136;11.538;2022-11-25T03:10:07;1.40;99.90
7413;DHT22;3748;48.136;11.538;2022-11-25T03:12:33;1.40;99.90
7413;DHT22;3748;48.136;11.538;2022-11-25T03:15:02;1.40;99.90
7413;DHT22;3748;48.136;11.538;2022-11-25T03:17:29;1.50;99.90
7413;DHT22;3748;48.136;11.538;2022-11-25T03:19:55;1.50;99.90
7413;DHT22;3748;48.136;11.538;2022-11-25T03:22:22;1.50;99.90
7413;DHT22;3748;48.136;11.538;2022-11-25T03:24:49;1.40;99.90
7413;DHT22;3748;48.136;11.538;2022-11-25T03:27:16;1.40;99.90
7413;DHT22;3748;48.136;11.538;2022-11-25T03:29:43;1.40;99.90
7413;DHT22;3748;48.136;11.538;2022-11-25T03:32:11;1.40;99.90
7413;DHT22;3748;48.136;11.538;2022-11-25T03:34:38;1.50;99.90
7413;DHT22;3748;48.136;11.538;2022-11-25T03:37:05;1.50;99.90
7413;DHT22;3748;48.136;11.538;2022-11-25T03:39:32;1.40;99.90
7413;DHT22;3748;48.136;11.538;2022-11-25T03:41:58;1.30;99.90
7413;DHT22;3748;48.136;11.538;2022-11-25T03:44:25;1.30;99.90
7413;DHT22;3748;48.136;11.538;2022-11-25T03:46:52;1.30;99.90
7413;DHT22;3748;48.136;11.538;2022-11-25T03:49:20;1.30;99.90
7413;DHT22;3748;48.136;11.538;2022-11-25T03:51:47;1.30;99.90
7413;DHT22;3748;48.136;11.538;2022-11-25T03:54:14;1.40;99.90
7413;DHT22;3748;48.136;11.538;2022-11-25T03:56:41;1.40;99.90
7413;DHT22;3748;48.136;11.538;2022-11-25T03:59:08;1.40;99.90
7413;DHT22;3748;48.136;11.538;2022-11-25T04:01:35;1.50;99.90
7413;DHT22;3748;48.136;11.538;2022-11-25T04:04:02;1.50;99.90
7413;DHT22;3748;48.136;11.538;2022-11-25T04:06:30;1.50;99.90
7413;DHT22;3748;48.136;11.538;2022-11-25T04:08:57;1.50;99.90
7413;DHT22;3748;48.136;11.538;2022-11-25T04:11:24;1.50;99.90
7413;DHT22;3748;48.136;11.538;2022-11-25T04:14:12;1.60;99.90
7413;DHT22;3748;48.136;11.538;2022-11-25T04:16:38;1.60;99.90
7413;DHT22;3748;48.136;11.538;2022-11-25T04:19:04;1.60;99.90
7413;DHT22;3748;48.136;11.538;2022-11-25T04:21:33;1.70;99.90
7413;DHT22;3748;48.136;11.538;2022-11-25T04:24:00;1.70;99.90
7413;DHT22;3748;48.136;11.538;2022-11-25T04:26:31;1.70;99.90
7413;DHT22;3748;48.136;11.538;2022-11-25T04:28:58;1.70;99.90
7413;DHT22;3748;48.136;11.538;2022-11-25T04:31:25;1.70;99.90
7413;DHT22;3748;48.136;11.538;2022-11-25T04:33:51;1.70;99.90
7413;DHT22;3748;48.136;11.538;2022-11-25T04:36:18;1.70;99.90
7413;DHT22;3748;48.136;11.538;2022-11-25T04:38:47;1.70;99.90
7413;DHT22;3748;48.136;11.538;2022-11-25T04:41:13;1.70;99.90
7413;DHT22;3748;48.136;11.538;2022-11-25T04:43:40;1.70;99.90
7413;DHT22;3748;48.136;11.538;2022-11-25T04:46:09;1.70;99.90
7413;DHT22;3748;48.136;11.538;2022-11-25T04:48:37;1.80;99.90
7413;DHT22;3748;48.136;11.538;2022-11-25T04:51:04;1.80;99.90
7413;DHT22;3748;48.136;11.538;2022-11-25T04:53:31;1.80;99.90
7413;DHT22;3748;48.136;11.538;2022-11-25T04:55:59;1.70;99.90
7413;DHT22;3748;48.136;11.538;2022-11-25T04:58:26;1.70;99.90
7413;DHT22;3748;48.136;11.538;2022-11-25T05:01:11;1.70;99.90
7413;DHT22;3748;48.136;11.538;2022-11-25T05:03:37;1.70;99.90
7413;DHT22;3748;48.136;11.538;2022-11-25T05:06:05;1.70;99.90
7413;DHT22;3748;48.136;11.538;2022-11-25T05:08:32;1.80;99.90
7413;DHT22;3748;48.136;11.538;2022-11-25T05:11:01;1.80;99.90
7413;DHT22;3748;48.136;11.538;2022-11-25T05:13:28;1.90;99.90
7413;DHT22;3748;48.136;11.538;2022-11-25T05:15:57;1.80;99.90
7413;DHT22;3748;48.136;11.538;2022-11-25T05:18:25;1.90;99.90
7413;DHT22;3748;48.136;11.538;2022-11-25T05:20:52;1.80;99.90
7413;DHT22;3748;48.136;11.538;2022-11-25T05:23:18;1.70;99.90
7413;DHT22;3748;48.136;11.538;2022-11-25T05:25:45;1.70;99.90
7413;DHT22;3748;48.136;11.538;2022-11-25T05:28:13;1.70;99.90
7413;DHT22;3748;48.136;11.538;2022-11-25T05:30:40;1.60;99.90
7413;DHT22;3748;48.136;11.538;2022-11-25T05:33:09;1.60;99.90
7413;DHT22;3748;48.136;11.538;2022-11-25T05:35:36;1.70;99.90
7413;DHT22;3748;48.136;11.538;2022-11-25T05:38:03;1.80;99.90
7413;DHT22;3748;48.136;11.538;2022-11-25T05:40:30;1.80;99.90
7413;DHT22;3748;48.136;11.538;2022-11-25T05:42:59;1.90;99.90
7413;DHT22;3748;48.136;11.538;2022-11-25T05:45:27;1.90;99.90
7413;DHT22;3748;48.136;11.538;2022-11-25T05:47:54;1.90;99.90
7413;DHT22;3748;48.136;11.538;2022-11-25T05:50:21;1.90;99.90
7413;DHT22;3748;48.136;11.538;2022-11-25T06:36:49;1.80;99.90
7413;DHT22;3748;48.136;11.538;2022-11-25T06:39:16;2.00;99.90
7413;DHT22;3748;48.136;11.538;2022-11-25T06:41:43;1.80;99.90
7413;DHT22;3748;48.136;11.538;2022-11-25T06:44:12;1.80;99.90
7413;DHT22;3748;48.136;11.538;2022-11-25T07:02:13;1.70;99.90
7413;DHT22;3748;48.136;11.538;2022-11-25T07:04:40;1.90;99.90
7413;DHT22;3748;48.136;11.538;2022-11-25T07:07:07;1.90;99.90
7413;DHT22;3748;48.136;11.538;2022-11-25T07:09:34;1.80;99.90
7413;DHT22;3748;48.136;11.538;2022-11-25T07:12:01;1.90;99.90
7413;DHT22;3748;48.136;11.538;2022-11-25T07:14:30;1.90;99.90
7413;DHT22;3748;48.136;11.538;2022-11-25T07:16:57;1.90;99.90
7413;DHT22;3748;48.136;11.538;2022-11-25T07:22:01;2.50;99.90
7413;DHT22;3748;48.136;11.538;2022-11-25T07:24:28;2.50;99.90
7413;DHT22;3748;48.136;11.538;2022-11-25T07:26:55;2.70;99.90
7413;DHT22;3748;48.136;11.538;2022-11-25T07:29:22;2.80;99.90
7413;DHT22;3748;48.136;11.538;2022-11-25T07:31:49;3.00;99.90
7413;DHT22;3748;48.136;11.538;2022-11-25T07:34:18;3.00;99.90
7413;DHT22;3748;48.136;11.538;2022-11-25T07:36:46;3.10;99.90
7413;DHT22;3748;48.136;11.538;2022-11-25T07:39:16;3.10;99.90
7413;DHT22;3748;48.136;11.538;2022-11-25T07:41:43;3.10;99.90
7413;DHT22;3748;48.136;11.538;2022-11-25T07:44:12;3.10;99.90
7413;DHT22;3748;48.136;11.538;2022-11-25T07:46:40;3.20;99.90
7413;DHT22;3748;48.136;11.538;2022-11-25T07:49:10;3.20;99.90
7413;DHT22;3748;48.136;11.538;2022-11-25T07:51:38;3.20;99.90
7413;DHT22;3748;48.136;11.538;2022-11-25T07:54:06;3.30;99.90
7413;DHT22;3748;48.136;11.538;2022-11-25T07:56:36;3.20;99.90
7413;DHT22;3748;48.136;11.538;2022-11-25T07:59:05;3.30;99.90
7413;DHT22;3748;48.136;11.538;2022-11-25T08:01:32;3.20;99.90
7413;DHT22;3748;48.136;11.538;2022-11-25T08:03:59;3.40;99.90
7413;DHT22;3748;48.136;11.538;2022-11-25T08:06:27;3.40;99.90
7413;DHT22;3748;48.136;11.538;2022-11-25T08:08:55;3.50;99.90
7413;DHT22;3748;48.136;11.538;2022-11-25T08:11:25;3.70;99.90
7413;DHT22;3748;48.136;11.538;2022-11-25T08:13:54;3.60;99.90
7413;DHT22;3748;48.136;11.538;2022-11-25T08:16:22;3.80;99.90
7413;DHT22;3748;48.136;11.538;2022-11-25T08:18:49;4.00;99.90
7413;DHT22;3748;48.136;11.538;2022-11-25T08:21:17;4.00;99.90
7413;DHT22;3748;48.136;11.538;2022-11-25T08:23:44;4.10;99.90
7413;DHT22;3748;48.136;11.538;2022-11-25T08:26:15;4.20;99.90
7413;DHT22;3748;48.136;11.538;2022-11-25T08:28:42;4.30;99.90
7413;DHT22;3748;48.136;11.538;2022-11-25T08:31:13;4.30;99.90
7413;DHT22;3748;48.136;11.538;2022-11-25T08:33:40;4.40;99.90
7413;DHT22;3748;48.136;11.538;2022-11-25T08:36:07;4.40;99.90
7413;DHT22;3748;48.136;11.538;2022-11-25T08:41:51;4.40;99.90
7413;DHT22;3748;48.136;11.538;2022-11-25T08:44:18;4.40;99.90
7413;DHT22;3748;48.136;11.538;2022-11-25T08:46:46;4.40;99.90
7413;DHT22;3748;48.136;11.538;2022-11-25T08:49:19;4.70;99.90
7413;DHT22;3748;48.136;11.538;2022-11-25T08:51:46;4.10;99.90
7413;DHT22;3748;48.136;11.538;2022-11-25T08:54:13;3.80;99.90
7413;DHT22;3748;48.136;11.538;2022-11-25T08:56:41;3.90;99.90
7413;DHT22;3748;48.136;11.538;2022-11-25T08:59:08;3.80;99.90
7413;DHT22;3748;48.136;11.538;2022-11-25T09:01:35;4.50;99.90
7413;DHT22;3748;48.136;11.538;2022-11-25T09:04:04;4.60;99.90
7413;DHT22;3748;48.136;11.538;2022-11-25T09:06:31;2.90;99.90
7413;DHT22;3748;48.136;11.538;2022-11-25T09:09:03;4.20;99.90
7413;DHT22;3748;48.136;11.538;2022-11-25T09:11:30;4.60;99.90
7413;DHT22;3748;48.136;11.538;2022-11-25T09:13:57;4.70;99.90
7413;DHT22;3748;48.136;11.538;2022-11-25T09:16:24;4.30;99.90
7413;DHT22;3748;48.136;11.538;2022-11-25T09:47:59;4.60;99.90
7413;DHT22;3748;48.136;11.538;2022-11-25T09:50:38;4.90;99.90
7413;DHT22;3748;48.136;11.538;2022-11-25T09:53:24;5.10;99.90
7413;DHT22;3748;48.136;11.538;2022-11-25T09:56:01;5.10;99.90
7413;DHT22;3748;48.136;11.538;2022-11-25T09:58:31;5.30;99.90
7413;DHT22;3748;48.136;11.538;2022-11-25T10:01:01;5.30;99.90
7413;DHT22;3748;48.136;11.538;2022-11-25T10:03:38;5.40;99.90
7413;DHT22;3748;48.136;11.538;2022-11-25T10:06:09;5.50;99.90
7413;DHT22;3748;48.136;11.538;2022-11-25T10:08:39;5.60;99.90
7413;DHT22;3748;48.136;11.538;2022-11-25T10:11:16;5.70;99.90
7413;DHT22;3748;48.136;11.538;2022-11-25T10:13:48;5.80;99.90
7413;DHT22;3748;48.136;11.538;2022-11-25T10:16:30;5.90;99.90
7413;DHT22;3748;48.136;11.538;2022-11-25T10:19:03;6.10;99.90
7413;DHT22;3748;48.136;11.538;2022-11-25T10:21:31;6.20;99.90
7413;DHT22;3748;48.136;11.538;2022-11-25T10:23:58;6.20;99.90
7413;DHT22;3748;48.136;11.538;2022-11-25T10:26:29;6.10;99.90
7413;DHT22;3748;48.136;11.538;2022-11-25T10:29:24;6.20;99.90
7413;DHT22;3748;48.136;11.538;2022-11-25T10:31:57;6.40;99.90
7413;DHT22;3748;48.136;11.538;2022-11-25T10:34:30;6.50;99.90
7413;DHT22;3748;48.136;11.538;2022-11-25T10:37:01;6.60;99.90
7413;DHT22;3748;48.136;11.538;2022-11-25T10:39:33;6.80;99.90
7413;DHT22;3748;48.136;11.538;2022-11-25T10:42:03;6.90;99.90
7413;DHT22;3748;48.136;11.538;2022-11-25T10:44:47;7.00;99.90
7413;DHT22;3748;48.136;11.538;2022-11-25T10:47:27;7.00;99.90
7413;DHT22;3748;48.136;11.538;2022-11-25T10:50:10;7.30;99.90
7413;DHT22;3748;48.136;11.538;2022-11-25T10:52:41;7.40;99.90
7413;DHT22;3748;48.136;11.538;2022-11-25T10:55:12;7.40;99.90
7413;DHT22;3748;48.136;11.538;2022-11-25T10:57:40;7.60;99.90
7413;DHT22;3748;48.136;11.538;2022-11-25T11:00:24;7.60;99.90
7413;DHT22;3748;48.136;11.538;2022-11-25T11:02:51;7.60;99.90
7413;DHT22;3748;48.136;11.538;2022-11-25T11:05:22;7.80;99.90
7413;DHT22;3748;48.136;11.538;2022-11-25T11:08:08;8.10;99.90
7413;DHT22;3748;48.136;11.538;2022-11-25T11:10:35;8.00;99.90
7413;DHT22;3748;48.136;11.538;2022-11-25T11:13:04;7.90;99.90
7413;DHT22;3748;48.136;11.538;2022-11-25T11:15:43;8.00;99.90
7413;DHT22;3748;48.136;11.538;2022-11-25T11:18:20;8.00;99.90
7413;DHT22;3748;48.136;11.538;2022-11-25T11:20:51;8.20;99.90
7413;DHT22;3748;48.136;11.538;2022-11-25T11:23:19;7.90;99.90
7413;DHT22;3748;48.136;11.538;2022-11-25T11:25:55;8.20;99.90
7413;DHT22;3748;48.136;11.538;2022-11-25T11:28:29;8.10;99.90
7413;DHT22;3748;48.136;11.538;2022-11-25T11:31:01;8.10;99.90
7413;DHT22;3748;48.136;11.538;2022-11-25T11:33:32;8.10;99.90
7413;DHT22;3748;48.136;11.538;2022-11-25T11:36:07;8.50;99.90
7413;DHT22;3748;48.136;11.538;2022-11-25T11:38:41;8.80;99.90
7413;DHT22;3748;48.136;11.538;2022-11-25T11:41:18;9.00;99.90
7413;DHT22;3748;48.136;11.538;2022-11-25T11:44:06;8.90;99.90
7413;DHT22;3748;48.136;11.538;2022-11-25T11:46:49;9.00;99.90
7413;DHT22;3748;48.136;11.538;2022-11-25T11:49:39;9.00;99.90
7413;DHT22;3748;48.136;11.538;2022-11-25T11:52:16;9.00;99.90
7413;DHT22;3748;48.136;11.538;2022-11-25T11:54:52;9.40;99.90
7413;DHT22;3748;48.136;11.538;2022-11-25T11:57:26;9.80;99.90
7413;DHT22;3748;48.136;11.538;2022-11-25T11:59:55;10.40;99.90
7413;DHT22;3748;48.136;11.538;2022-11-25T12:02:41;10.70;99.90
7413;DHT22;3748;48.136;11.538;2022-11-25T12:05:16;11.10;99.90
7413;DHT22;3748;48.136;11.538;2022-11-25T12:07:50;11.10;99.90
7413;DHT22;3748;48.136;11.538;2022-11-25T12:10:25;11.10;99.90
7413;DHT22;3748;48.136;11.538;2022-11-25T12:12:58;11.80;99.90
7413;DHT22;3748;48.136;11.538;2022-11-25T12:15:46;11.50;99.90
7413;DHT22;3748;48.136;11.538;2022-11-25T12:18:23;11.50;99.90
7413;DHT22;3748;48.136;11.538;2022-11-25T12:20:58;11.40;99.90
7413;DHT22;3748;48.136;11.538;2022-11-25T12:23:37;11.90;99.90
7413;DHT22;3748;48.136;11.538;2022-11-25T12:26:10;11.20;99.90
7413;DHT22;3748;48.136;11.538;2022-11-25T12:28:42;12.20;99.90
7413;DHT22;3748;48.136;11.538;2022-11-25T12:31:16;12.60;99.90
7413;DHT22;3748;48.136;11.538;2022-11-25T12:33:51;13.70;99.90
7413;DHT22;3748;48.136;11.538;2022-11-25T12:36:25;13.30;99.90
7413;DHT22;3748;48.136;11.538;2022-11-25T12:39:01;14.60;99.90
7413;DHT22;3748;48.136;11.538;2022-11-25T12:41:38;13.80;99.90
7413;DHT22;3748;48.136;11.538;2022-11-25T12:44:11;12.90;99.90
7413;DHT22;3748;48.136;11.538;2022-11-25T12:46:42;12.60;99.90
7413;DHT22;3748;48.136;11.538;2022-11-25T12:49:16;13.10;99.90
7413;DHT22;3748;48.136;11.538;2022-11-25T12:52:10;12.90;99.90
7413;DHT22;3748;48.136;11.538;2022-11-25T12:54:59;11.90;99.90
7413;DHT22;3748;48.136;11.538;2022-11-25T12:57:40;11.80;99.90
7413;DHT22;3748;48.136;11.538;2022-11-25T13:00:17;11.80;99.90
7413;DHT22;3748;48.136;11.538;2022-11-25T13:03:12;11.80;99.90
7413;DHT22;3748;48.136;11.538;2022-11-25T13:06:06;11.40;99.90
7413;DHT22;3748;48.136;11.538;2022-11-25T13:08:54;11.40;99.90
7413;DHT22;3748;48.136;11.538;2022-11-25T13:11:52;11.80;99.90
7413;DHT22;3748;48.136;11.538;2022-11-25T13:14:27;11.70;99.90
7413;DHT22;3748;48.136;11.538;2022-11-25T13:16:56;11.40;99.90
7413;DHT22;3748;48.136;11.538;2022-11-25T13:19:24;11.00;99.90
7413;DHT22;3748;48.136;11.538;2022-11-25T13:21:58;10.90;99.90
7413;DHT22;3748;48.136;11.538;2022-11-25T13:24:31;10.80;99.90
7413;DHT22;3748;48.136;11.538;2022-11-25T13:26:59;10.70;99.90
7413;DHT22;3748;48.136;11.538;2022-11-25T13:29:57;10.70;99.90
7413;DHT22;3748;48.136;11.538;2022-11-25T13:32:33;10.70;99.90
7413;DHT22;3748;48.136;11.538;2022-11-25T13:35:31;10.50;99.90
7413;DHT22;3748;48.136;11.538;2022-11-25T13:38:00;10.40;99.90
7413;DHT22;3748;48.136;11.538;2022-11-25T13:40:35;10.40;99.90
7413;DHT22;3748;48.136;11.538;2022-11-25T13:43:04;10.30;99.90
7413;DHT22;3748;48.136;11.538;2022-11-25T13:45:45;10.30;99.90
7413;DHT22;3748;48.136;11.538;2022-11-25T13:48:16;10.20;99.90
7413;DHT22;3748;48.136;11.538;2022-11-25T13:50:44;10.10;99.90
7413;DHT22;3748;48.136;11.538;2022-11-25T13:53:19;10.10;99.90
7413;DHT22;3748;48.136;11.538;2022-11-25T13:55:46;10.10;99.90
7413;DHT22;3748;48.136;11.538;2022-11-25T13:58:22;10.00;99.90
7413;DHT22;3748;48.136;11.538;2022-11-25T14:01:00;10.00;99.90
7413;DHT22;3748;48.136;11.538;2022-11-25T14:03:49;10.00;99.90
7413;DHT22;3748;48.136;11.538;2022-11-25T14:16:11;9.90;99.90
7413;DHT22;3748;48.136;11.538;2022-11-25T14:19:00;10.00;99.90
7413;DHT22;3748;48.136;11.538;2022-11-25T14:21:58;10.00;99.90
7413;DHT22;3748;48.136;11.538;2022-11-25T14:24:29;10.10;99.90
7413;DHT22;3748;48.136;11.538;2022-11-25T14:27:00;10.00;99.90
7413;DHT22;3748;48.136;11.538;2022-11-25T14:29:32;10.00;99.90
7413;DHT22;3748;48.136;11.538;2022-11-25T14:32:06;9.80;99.90
7413;DHT22;3748;48.136;11.538;2022-11-25T14:34:38;9.70;99.90
7413;DHT22;3748;48.136;11.538;2022-11-25T14:37:11;9.60;99.90
7413;DHT22;3748;48.136;11.538;2022-11-25T14:39:49;9.80;99.90
7413;DHT22;3748;48.136;11.538;2022-11-25T14:42:20;9.40;99.90
7413;DHT22;3748;48.136;11.538;2022-11-25T14:44:49;9.30;99.90
7413;DHT22;3748;48.136;11.538;2022-11-25T14:50:04;9.00;99.90
7413;DHT22;3748;48.136;11.538;2022-11-25T14:52:39;8.70;99.90
7413;DHT22;3748;48.136;11.538;2022-11-25T14:55:09;8.80;99.90
7413;DHT22;3748;48.136;11.538;2022-11-25T14:57:39;8.50;99.90
7413;DHT22;3748;48.136;11.538;2022-11-25T15:00:10;8.30;99.90
7413;DHT22;3748;48.136;11.538;2022-11-25T15:02:51;8.20;99.90
7413;DHT22;3748;48.136;11.538;2022-11-25T15:05:21;8.30;99.90
7413;DHT22;3748;48.136;11.538;2022-11-25T15:07:56;8.00;99.90
7413;DHT22;3748;48.136;11.538;2022-11-25T15:10:38;8.20;99.90
7413;DHT22;3748;48.136;11.538;2022-11-25T15:13:12;7.90;99.90
7413;DHT22;3748;48.136;11.538;2022-11-25T15:15:44;7.90;99.90
7413;DHT22;3748;48.136;11.538;2022-11-25T15:18:18;8.10;99.90
7413;DHT22;3748;48.136;11.538;2022-11-25T15:20:47;7.70;99.90
7413;DHT22;3748;48.136;11.538;2022-11-25T15:23:19;7.60;99.90
7413;DHT22;3748;48.136;11.538;2022-11-25T15:25:49;7.80;99.90
7413;DHT22;3748;48.136;11.538;2022-11-25T15:28:16;8.40;99.90
7413;DHT22;3748;48.136;11.538;2022-11-25T15:30:55;7.60;99.90
7413;DHT22;3748;48.136;11.538;2022-11-25T15:33:27;8.00;99.90
7413;DHT22;3748;48.136;11.538;2022-11-25T15:35:55;7.40;99.90
7413;DHT22;3748;48.136;11.538;2022-11-25T15:38:39;7.60;99.90
7413;DHT22;3748;48.136;11.538;2022-11-25T15:41:24;7.50;99.90
7413;DHT22;3748;48.136;11.538;2022-11-25T15:43:55;7.60;99.90
7413;DHT22;3748;48.136;11.538;2022-11-25T15:46:24;7.50;99.90
7413;DHT22;3748;48.136;11.538;2022-11-25T15:48:54;7.40;99.90
7413;DHT22;3748;48.136;11.538;2022-11-25T15:51:34;7.50;99.90
7413;DHT22;3748;48.136;11.538;2022-11-25T15:54:05;7.50;99.90
7413;DHT22;3748;48.136;11.538;2022-11-25T15:56:37;7.30;99.90
7413;DHT22;3748;48.136;11.538;2022-11-25T16:31:29;6.90;99.90
7413;DHT22;3748;48.136;11.538;2022-11-25T16:34:30;6.40;99.90
7413;DHT22;3748;48.136;11.538;2022-11-25T16:52:12;7.20;99.90
7413;DHT22;3748;48.136;11.538;2022-11-25T16:55:13;5.90;99.90
7413;DHT22;3748;48.136;11.538;2022-11-25T17:00:34;6.80;99.90
7413;DHT22;3748;48.136;11.538;2022-11-25T17:03:17;6.70;99.90
7413;DHT22;3748;48.136;11.538;2022-11-25T17:37:12;7.50;99.90
7413;DHT22;3748;48.136;11.538;2022-11-25T17:39:47;6.70;99.90
7413;DHT22;3748;48.136;11.538;2022-11-25T17:42:27;6.70;99.90
7413;DHT22;3748;48.136;11.538;2022-11-25T17:45:24;6.70;99.90
7413;DHT22;3748;48.136;11.538;2022-11-25T17:48:17;6.90;99.90
7413;DHT22;3748;48.136;11.538;2022-11-25T17:51:11;7.70;99.90
7413;DHT22;3748;48.136;11.538;2022-11-25T17:53:40;6.80;99.90
7413;DHT22;3748;48.136;11.538;2022-11-25T17:56:17;6.80;99.90
7413;DHT22;3748;48.136;11.538;2022-11-25T17:58:48;7.30;99.90
7413;DHT22;3748;48.136;11.538;2022-11-25T18:01:31;6.80;99.90
7413;DHT22;3748;48.136;11.538;2022-11-25T18:06:52;6.50;99.90
7413;DHT22;3748;48.136;11.538;2022-11-25T18:35:32;6.30;99.90
7413;DHT22;3748;48.136;11.538;2022-11-25T18:38:03;7.10;99.90
7413;DHT22;3748;48.136;11.538;2022-11-25T18:44:09;6.70;99.90
7413;DHT22;3748;48.136;11.538;2022-11-25T18:50:20;7.00;99.90
7413;DHT22;3748;48.136;11.538;2022-11-25T19:03:30;6.50;99.90
7413;DHT22;3748;48.136;11.538;2022-11-25T19:06:45;6.40;99.90
7413;DHT22;3748;48.136;11.538;2022-11-25T19:13:19;6.40;99.90
7413;DHT22;3748;48.136;11.538;2022-11-25T19:16:09;6.60;99.90
7413;DHT22;3748;48.136;11.538;2022-11-25T19:19:02;6.50;99.90
7413;DHT22;3748;48.136;11.538;2022-11-25T19:25:08;5.70;99.90
7413;DHT22;3748;48.136;11.538;2022-11-25T19:36:45;6.40;99.90
7413;DHT22;3748;48.136;11.538;2022-11-25T19:39:32;6.60;99.90
7413;DHT22;3748;48.136;11.538;2022-11-25T19:42:09;6.50;99.90
7413;DHT22;3748;48.136;11.538;2022-11-25T19:48:04;6.30;99.90
7413;DHT22;3748;48.136;11.538;2022-11-25T19:50:34;5.60;99.90
7413;DHT22;3748;48.136;11.538;2022-11-25T19:53:04;6.20;99.90
7413;DHT22;3748;48.136;11.538;2022-11-25T19:55:34;6.00;99.90
7413;DHT22;3748;48.136;11.538;2022-11-25T19:58:08;6.00;99.90
7413;DHT22;3748;48.136;11.538;2022-11-25T20:03:29;6.00;99.90
7413;DHT22;3748;48.136;11.538;2022-11-25T20:06:17;6.70;99.90
7413;DHT22;3748;48.136;11.538;2022-11-25T20:09:13;4.90;99.90
7413;DHT22;3748;48.136;11.538;2022-11-25T20:11:45;6.70;99.90
7413;DHT22;3748;48.136;11.538;2022-11-25T20:14:30;6.90;99.90
7413;DHT22;3748;48.136;11.538;2022-11-25T20:17:12;5.80;99.90
7413;DHT22;3748;48.136;11.538;2022-11-25T20:22:56;6.00;99.90
7413;DHT22;3748;48.136;11.538;2022-11-25T20:25:34;5.80;99.90
7413;DHT22;3748;48.136;11.538;2022-11-25T20:28:19;6.00;99.90
7413;DHT22;3748;48.136;11.538;2022-11-25T20:30:48;5.90;99.90
7413;DHT22;3748;48.136;11.538;2022-11-25T20:33:15;5.90;99.90
7413;DHT22;3748;48.136;11.538;2022-11-25T20:35:43;5.80;99.90
7413;DHT22;3748;48.136;11.538;2022-11-25T20:38:13;6.10;99.90
7413;DHT22;3748;48.136;11.538;2022-11-25T20:40:43;5.90;99.90
7413;DHT22;3748;48.136;11.538;2022-11-25T20:43:24;6.20;99.90
7413;DHT22;3748;48.136;11.538;2022-11-25T20:45:52;5.50;99.90
7413;DHT22;3748;48.136;11.538;2022-11-25T20:48:19;5.90;99.90
7413;DHT22;3748;48.136;11.538;2022-11-25T20:50:46;5.80;99.90
7413;DHT22;3748;48.136;11.538;2022-11-25T20:53:14;6.10;99.90
7413;DHT22;3748;48.136;11.538;2022-11-25T20:55:43;5.90;99.90